Monday, July 23, 2018, 11:35 AM GMT
Back to Local

CYOW, Ottawa Int'L. Ont.

Location: , , Canada Lat: 45.317
Local Time: 11:35 AM GMT (11:35 GMT) Lon: -75.667
Time Zone: GMT Elev: 380 ft

Show me the last for .
Show Decoded

2018-07-23 11:00 METAR CYOW 231100Z 08010KT 15SM BKN060 BKN090 BKN180 20/19 A3006 RMK SC5AC1AC1
                 SLP179 DENSITY ALT 1000FT =
2018-07-23 10:00 METAR CYOW 231000Z 07009KT 15SM FEW003 FEW090 SCT150 BKN240 20/19 A3003 RMK
                 SF1ACC1AC2CI4 SF TR SLP172 DENSITY ALT 900FT =
2018-07-23 09:00 METAR CYOW 230900Z 07009KT 15SM FEW003 SCT090 BKN240 20/19 A3003 RMK SF1AC3CI2
                 SF TR SLP170 DENSITY ALT 900FT =
2018-07-23 08:00 METAR CYOW 230800Z 06009KT 15SM FEW005 SCT090 20/19 A3002 RMK SF1AC4 SF TR
                 SLP166 DENSITY ALT 1000FT =
2018-07-23 07:00 METAR CYOW 230700Z 07007KT 15SM SCT080 BKN150 BKN230 21/20 A3002 RMK AC4AC1CI1
                 SLP167 DENSITY ALT 1000FT =
2018-07-23 06:00 METAR CYOW 230600Z 07007KT 15SM FEW085 SCT150 SCT230 21/20 A3001 RMK AC2AC1CI1
                 SLP164 DENSITY ALT 1000FT =
2018-07-23 05:00 METAR CYOW 230500Z 07010KT 15SM FEW050 SCT130 21/20 A3002 RMK SC2AC1 SLP167
                 DENSITY ALT 1100FT =
2018-07-23 04:00 METAR CYOW 230400Z 08011KT 15SM FEW050 BKN130 BKN210 22/20 A3003 RMK SC2AC3CI2
                 SLP169 DENSITY ALT 1100FT =
2018-07-23 03:00 METAR CYOW 230300Z 06010G20KT 15SM SCT060 SCT170 BKN210 21/20 A3001 RMK
                 SC3AC1CI2 /R11/ SLP164 DENSITY ALT 1100FT =
2018-07-23 02:33 METAR CYOW 230233Z 06010KT 15SM SCT035TCU BKN100 BKN210 21/20 A3001 RMK
                 TCU4AC1CI1 SLP164 DENSITY ALT 1100FT =
2018-07-23 02:12 METAR CYOW 230212Z 06013G18KT 040V190 6SM R32/3000VP6000FT/U R07/5500VP6000FT/U
                 -SHRA BR SCT035TCU BKN130 21/20 A3002 RMK TCU4AC1 SLP167 DENSITY ALT 1100FT =
2018-07-23 02:04 METAR CYOW 230204Z 10004KT 060V140 1 1/4SM R32/3000VP6000FT/D R07/5500VP6000FT/D
                 +SHRA BR OVC035TCU 21/20 A3004 RMK RA2TCU6 PRESRR SLP174 DENSITY ALT 1100FT =
2018-07-23 02:00 METAR CYOW 230200Z 10005KT 060V130 4SM SHRA BR BKN035TCU 22/20 A3003 RMK TCU6
                 PRESRR SLP172 DENSITY ALT 1100FT =
2018-07-23 01:38 METAR CYOW 230138Z 08003KT 020V110 10SM -TSRA SCT045CB BKN090 22/19 A3002 RMK
                 CB4AC1 0CNL LTGIC PRESRR SLP167 DENSITY ALT 1300FT =
2018-07-23 01:36 METAR CYOW 230136Z 05006KT 15SM TS VCSH SCT045CB BKN090 22/19 A3001 RMK CB4AC1
                 OCNL LTGIC PRESRR SLP163 DENSITY ALT 1300FT =
2018-07-23 01:00 METAR CYOW 230100Z 05012KT 15SM VCSH SCT050TCU SCT090 BKN250 23/19 A2998 RMK
                 TCU3AC1CI1 SLP155 DENSITY ALT 1300FT =
2018-07-23 00:00 METAR CYOW 230000Z 05013KT 15SM SCT050TCU BKN250 23/19 A2996 RMK TCU3CI2 SLP148
                 DENSITY ALT 1400FT =
2018-07-22 23:00 METAR CYOW 222300Z 06014G19KT 15SM FEW040TCU SCT250 24/19 A2995 RMK TCU1CI2 TCU
                 SW SLP143 DENSITY ALT 1600FT =
2018-07-22 22:00 METAR CYOW 222200Z 07016G23KT 15SM FEW025TCU FEW030 FEW160 FEW210 SCT250 24/18
                 A2994 RMK TCU1CU1AC1CI1CI2 TCU TR CU TR AC TR SLP139 DENSITY ALT 1600FT =
2018-07-22 21:00 METAR CYOW 222100Z 06017G25KT 15SM FEW030 FEW200 SCT250 24/18 A2994 RMK
                 CU1CI1CI2 CU TR SLP138 DENSITY ALT 1500FT =
2018-07-22 20:00 METAR CYOW 222000Z 07017G24KT 15SM FEW025 SCT050 BKN070 24/17 A2994 RMK
                 SC1SC3AC2 SC TR SLP139 DENSITY ALT 1500FT =
2018-07-22 19:00 METAR CYOW 221900Z 07017G25KT 15SM SCT025TCU OVC057 22/17 A2994 RMK TCU3SC5
                 SLP142 DENSITY ALT 1300FT =
2018-07-22 18:00 METAR CYOW 221800Z 07015G30KT 15SM SCT018 OVC045 20/16 A2996 RMK SC3SC5 SLP146
                 DENSITY ALT 1000FT =
2018-07-22 17:09 METAR CYOW 221709Z 06016G25KT 15SM BKN038 18/16 A2996 RMK SC7 SLP146 DENSITY ALT
                 800FT =
2018-07-22 17:00 METAR CYOW 221700Z 06019G25KT 15SM -RA BKN038 OVC090 18/16 A2996 RMK SC7AC1
                 SLP147 DENSITY ALT 800FT =
2018-07-22 16:36 METAR CYOW 221636Z 06018G25KT 10SM -RA SCT020 OVC040 17/16 A2997 RMK SC3SC5
                 SLP149 DENSITY ALT 700FT =
2018-07-22 16:00 METAR CYOW 221600Z 07018G23KT 2 1/2SM -RA BR OVC015 17/16 A2997 RMK FG2SC6
                 SLP152 DENSITY ALT 700FT =
2018-07-22 15:31 METAR CYOW 221531Z 06016G21KT 10SM -RA OVC048 18/16 A2997 RMK SC8 SLP150 DENSITY
                 ALT 800FT =
2018-07-22 15:19 METAR CYOW 221519Z 06018KT 15SM SCT030 OVC078 18/16 A2996 RMK SC3AC5 SLP146
                 DENSITY ALT 800FT =
2018-07-22 15:00 METAR CYOW 221500Z 06019G25KT 15SM -RA SCT030 OVC086 17/16 A2995 RMK SC4AC4
                 SLP144 DENSITY ALT 700FT =
2018-07-22 14:00 METAR CYOW 221400Z 07018G25KT 15SM -RA SCT029 OVC083 18/14 A2997 RMK SC4AC4
                 SLP152 DENSITY ALT 800FT =
2018-07-22 13:00 METAR CYOW 221300Z 07014KT 15SM -RA BKN050 OVC090 19/12 A2997 RMK SC5AC3 SLP150
                 DENSITY ALT 900FT =
2018-07-22 12:16 METAR CYOW 221216Z 07016KT 15SM -RA OVC050 19/12 A2997 RMK SC8 SLP151 DENSITY
                 ALT 900FT =
2018-07-22 12:00 METAR CYOW 221200Z 07012KT 15SM BKN048 BKN120 18/12 A2997 RMK SC6AC1 SLP150
                 DENSITY ALT 800FT =

Support USWX by starting your Amazon purchase here.